Time;durP1;ratioP1;P1;durP2;ratioP2;P2;SDS_P1;SDS_P2;PMS_P1;PMS_P2;Temp;Humidity;BMP_temperature;BMP_pressure;BME280_temperature;BME280_humidity;BME280_pressure;Samples;Min_cycle;Max_cycle;Signal;HPM_P1;HPM_P2
2023/07/02 00:01:04;;;;;;;2.17;1.98;;;;;;;15.79;100.00;97582.00;4179441;28;20054;-75
2023/07/02 00:03:05;;;;;;;2.47;2.20;;;;;;;15.80;100.00;97586.34;4172309;28;20037;-74
2023/07/02 00:05:06;;;;;;;2.75;2.25;;;;;;;15.78;100.00;97582.44;4173409;28;20064;-75
2023/07/02 00:07:06;;;;;;;3.90;2.50;;;;;;;15.77;100.00;97581.66;4182409;28;20429;-75
2023/07/02 00:09:07;;;;;;;3.25;2.40;;;;;;;15.79;100.00;97584.00;4172462;28;20136;-74
2023/07/02 00:11:12;;;;;;;4.57;2.50;;;;;;;15.77;100.00;97576.06;4181907;28;20428;-74
2023/07/02 00:13:12;;;;;;;3.05;2.50;;;;;;;15.77;100.00;97576.06;4178830;28;20045;-74
2023/07/02 00:15:12;;;;;;;3.35;2.60;;;;;;;15.77;100.00;97589.22;4180555;28;20546;-75
2023/07/02 00:17:13;;;;;;;3.40;2.80;;;;;;;15.75;100.00;97584.09;4171757;28;20044;-74
2023/07/02 00:19:14;;;;;;;3.22;2.65;;;;;;;15.70;100.00;97588.16;4172698;28;20060;-75
2023/07/02 00:21:15;;;;;;;3.53;2.70;;;;;;;15.70;100.00;97581.81;4182567;28;20044;-75
2023/07/02 00:23:15;;;;;;;3.20;2.78;;;;;;;15.68;100.00;97582.25;4186747;28;20445;-75
2023/07/02 00:25:16;;;;;;;4.10;2.70;;;;;;;15.69;100.00;97591.41;4185935;28;20132;-74
2023/07/02 00:27:16;;;;;;;4.22;2.70;;;;;;;15.68;100.00;97587.03;4185632;28;20072;-74
2023/07/02 00:29:16;;;;;;;3.38;2.67;;;;;;;15.69;100.00;97585.81;4174454;28;20045;-75
2023/07/02 00:31:17;;;;;;;4.00;2.80;;;;;;;15.71;100.00;97583.38;4175519;28;20045;-75
2023/07/02 00:33:17;;;;;;;3.65;3.08;;;;;;;15.70;100.00;97584.59;4172416;28;20045;-74
2023/07/02 00:35:18;;;;;;;4.70;3.28;;;;;;;15.72;100.00;97591.34;4179825;28;20064;-74
2023/07/02 00:37:18;;;;;;;5.00;3.78;;;;;;;15.79;100.00;97575.63;4186099;28;20179;-75
2023/07/02 00:39:18;;;;;;;3.75;3.33;;;;;;;15.81;100.00;97576.00;4187685;28;20420;-74
2023/07/02 00:41:19;;;;;;;3.67;3.28;;;;;;;15.85;100.00;97580.25;4181104;28;20056;-75
2023/07/02 00:43:19;;;;;;;4.68;3.45;;;;;;;15.85;100.00;97579.47;4179729;28;20063;-75
2023/07/02 00:45:19;;;;;;;4.63;3.20;;;;;;;15.88;100.00;97579.38;4176408;28;20144;-74
2023/07/02 00:47:20;;;;;;;4.00;3.60;;;;;;;15.93;100.00;97580.88;4172335;28;20094;-74
2023/07/02 00:49:20;;;;;;;3.83;3.53;;;;;;;15.91;100.00;97580.53;4172320;28;20680;-74
2023/07/02 00:51:26;;;;;;;3.60;3.30;;;;;;;15.92;100.00;97588.47;4172467;28;20098;-74
2023/07/02 00:53:26;;;;;;;4.68;3.20;;;;;;;15.92;100.00;97591.25;4181216;28;20429;-75
2023/07/02 00:55:27;;;;;;;4.00;3.60;;;;;;;15.93;100.00;97587.25;4178718;28;20049;-74
2023/07/02 00:57:29;;;;;;;3.53;3.22;;;;;;;15.91;100.00;97586.91;4183228;28;20133;-75
2023/07/02 00:59:30;;;;;;;;;;;;;;;15.93;100.00;97589.25;4189101;28;20127;-75
2023/07/02 01:01:33;;;;;;;4.05;3.65;;;;;;;15.97;100.00;97592.72;4190585;28;20346;-74
2023/07/02 01:03:36;;;;;;;3.90;3.28;;;;;;;15.91;100.00;97592.47;4188509;28;20489;-74
2023/07/02 01:05:37;;;;;;;5.13;3.95;;;;;;;15.86;100.00;97597.78;4179391;28;20049;-74
2023/07/02 01:07:37;;;;;;;4.00;3.60;;;;;;;15.84;100.00;97603.00;4174865;28;20306;-74
2023/07/02 01:09:37;;;;;;;4.25;3.65;;;;;;;15.83;100.00;97598.66;4174763;28;20152;-75
2023/07/02 01:11:45;;;;;;;6.20;3.70;;;;;;;15.83;100.00;97602.22;4182697;28;20457;-75
2023/07/02 01:13:46;;;;;;;4.63;4.10;;;;;;;15.80;100.00;97594.72;4180828;28;20052;-75
2023/07/02 01:15:47;;;;;;;5.57;3.95;;;;;;;15.86;100.00;97603.34;4174718;28;20059;-74
2023/07/02 01:17:48;;;;;;;5.40;3.72;;;;;;;15.85;100.00;97599.00;4177135;28;20443;-74
2023/07/02 01:19:51;;;;;;;4.32;3.88;;;;;;;15.86;100.00;97603.34;4190912;28;20388;-75
2023/07/02 01:21:51;;;;;;;5.10;3.58;;;;;;;15.86;100.00;97600.56;4189662;28;20048;-74
2023/07/02 01:23:52;;;;;;;6.25;4.30;;;;;;;15.84;100.00;97598.22;4186939;28;20045;-75
2023/07/02 01:25:52;;;;;;;5.30;3.55;;;;;;;15.89;100.00;97605.28;4185291;28;20309;-74
2023/07/02 01:27:53;;;;;;;6.32;3.72;;;;;;;15.91;100.00;97600.84;4184693;28;20044;-75
2023/07/02 01:29:53;;;;;;;4.53;3.38;;;;;;;15.90;100.00;97587.34;4180236;28;20133;-74
2023/07/02 01:31:54;;;;;;;4.75;3.63;;;;;;;15.87;100.00;97582.63;4179920;28;20515;-74
2023/07/02 01:33:54;;;;;;;4.50;3.35;;;;;;;15.86;100.00;97586.63;4178314;28;20832;-75
2023/07/02 01:35:54;;;;;;;4.00;3.42;;;;;;;15.82;100.00;97577.56;4188599;28;20044;-74
2023/07/02 01:37:55;;;;;;;5.18;3.90;;;;;;;15.82;100.00;97591.50;4182271;28;20408;-74
2023/07/02 01:39:55;;;;;;;4.47;3.60;;;;;;;15.81;100.00;97584.38;4176879;28;20608;-75
2023/07/02 01:42:07;;;;;;;3.95;3.58;;;;;;;15.79;100.00;97587.56;4177872;28;20622;-75
2023/07/02 01:44:07;;;;;;;3.92;3.63;;;;;;;15.80;100.00;97594.72;4173834;28;20040;-75
2023/07/02 01:46:08;;;;;;;3.83;3.42;;;;;;;15.78;100.00;97596.38;4174595;28;20120;-75
2023/07/02 01:48:08;;;;;;;5.93;3.85;;;;;;;15.77;100.00;97598.38;4181961;28;20314;-75
2023/07/02 01:50:09;;;;;;;5.53;3.63;;;;;;;15.73;100.00;97589.31;4182961;28;20499;-75
2023/07/02 01:52:09;;;;;;;4.50;3.45;;;;;;;15.70;100.00;97593.75;4179188;28;20039;-75
2023/07/02 01:54:09;;;;;;;4.80;4.15;;;;;;;15.71;100.00;97605.69;4178943;28;20094;-75
2023/07/02 01:56:10;;;;;;;5.18;3.50;;;;;;;15.71;100.00;97595.31;4189528;28;20115;-75
2023/07/02 01:58:10;;;;;;;5.65;3.92;;;;;;;15.69;100.00;97606.13;4181714;28;20027;-75
2023/07/02 02:00:11;;;;;;;4.93;3.72;;;;;;;15.67;100.00;97602.22;4178105;28;20135;-75
2023/07/02 02:02:11;;;;;;;5.45;3.70;;;;;;;15.67;100.00;97608.56;4189625;28;20111;-75
2023/07/02 02:04:12;;;;;;;5.60;3.47;;;;;;;15.65;100.00;97607.44;4188921;28;20427;-75
2023/07/02 02:06:12;;;;;;;5.60;3.40;;;;;;;15.61;100.00;97601.94;4189213;28;20444;-75
2023/07/02 02:08:12;;;;;;;4.65;3.55;;;;;;;15.59;100.00;97607.13;4179583;28;20036;-75
2023/07/02 02:10:14;;;;;;;5.97;3.92;;;;;;;15.56;100.00;97608.00;4181646;28;20032;-75
2023/07/02 02:12:14;;;;;;;7.53;3.57;;;;;;;15.58;100.00;97619.50;4174396;28;20401;-75
2023/07/02 02:14:15;;;;;;;4.32;3.92;;;;;;;15.55;100.00;97616.78;4174096;28;20094;-75
2023/07/02 02:16:15;;;;;;;4.40;3.40;;;;;;;15.51;100.00;97614.06;4180470;28;20071;-75
2023/07/02 02:18:15;;;;;;;5.13;3.92;;;;;;;15.58;100.00;97608.34;4186964;28;20076;-75
2023/07/02 02:20:16;;;;;;;11.07;4.22;;;;;;;15.54;100.00;97618.78;4189772;28;20048;-74
2023/07/02 02:22:16;;;;;;;4.13;3.72;;;;;;;15.47;100.00;97616.16;4182579;28;20119;-75
2023/07/02 02:24:16;;;;;;;6.55;3.88;;;;;;;15.42;100.00;97622.25;4189131;28;20028;-75
2023/07/02 02:26:17;;;;;;;5.15;4.22;;;;;;;15.36;100.00;97621.16;4182855;28;20107;-75
2023/07/02 02:28:17;;;;;;;5.72;3.90;;;;;;;15.32;100.00;97621.25;4175236;28;20029;-75
2023/07/02 02:30:17;;;;;;;4.50;4.10;;;;;;;15.34;100.00;97623.59;4184166;28;20473;-74
2023/07/02 02:32:19;;;;;;;6.43;3.95;;;;;;;15.32;100.00;97629.63;4174751;28;20504;-75
2023/07/02 02:34:19;;;;;;;5.88;4.15;;;;;;;15.29;100.00;97626.88;4182254;28;20125;-75
2023/07/02 02:36:20;;;;;;;4.68;4.20;;;;;;;15.33;100.00;97635.97;4181573;28;20709;-75
2023/07/02 02:38:21;;;;;;;7.07;4.70;;;;;;;15.31;100.00;97632.84;4181285;28;20050;-75
2023/07/02 02:40:21;;;;;;;6.88;4.90;;;;;;;15.36;100.00;97632.31;4189030;28;20048;-75
2023/07/02 02:42:21;;;;;;;8.52;5.43;;;;;;;15.35;100.00;97636.31;4173585;28;20364;-75
2023/07/02 02:44:21;;;;;;;5.70;4.82;;;;;;;15.37;100.00;97643.03;4174419;28;20037;-75
2023/07/02 02:46:22;;;;;;;5.38;4.60;;;;;;;15.39;100.00;97634.25;4180076;28;20055;-75
2023/07/02 02:48:23;;;;;;;5.18;4.72;;;;;;;15.36;100.00;97637.91;4186337;28;20477;-75
2023/07/02 02:50:23;;;;;;;7.80;4.95;;;;;;;15.36;100.00;97646.25;4187697;28;20491;-74
2023/07/02 02:52:23;;;;;;;6.28;5.60;;;;;;;15.33;100.00;97645.13;4188033;28;20033;-75
2023/07/02 02:54:24;;;;;;;5.40;4.90;;;;;;;15.32;100.00;97651.91;4189145;28;20047;-74
2023/07/02 02:56:24;;;;;;;5.97;4.97;;;;;;;15.34;100.00;97640.34;4188046;28;20055;-75
2023/07/02 02:58:24;;;;;;;6.55;5.43;;;;;;;15.36;100.00;97649.03;4183273;28;20040;-74
2023/07/02 03:00:25;;;;;;;6.43;5.32;;;;;;;15.36;100.00;97646.25;4173509;28;20764;-75
2023/07/02 03:02:25;;;;;;;5.93;5.00;;;;;;;15.40;100.00;97647.78;4173539;28;20207;-75
2023/07/02 03:04:26;;;;;;;7.28;5.40;;;;;;;15.42;100.00;97647.34;4173839;28;20069;-74
2023/07/02 03:06:26;;;;;;;8.98;5.32;;;;;;;15.42;100.00;97647.34;4183080;28;20102;-75
2023/07/02 03:08:26;;;;;;;5.60;5.05;;;;;;;15.40;100.00;97653.34;4185668;28;20047;-74
2023/07/02 03:10:28;;;;;;;5.40;4.90;;;;;;;15.41;100.00;97659.69;4174020;28;20045;-74
2023/07/02 03:12:28;;;;;;;5.30;4.80;;;;;;;15.37;100.00;97658.97;4176438;28;20241;-75
2023/07/02 03:14:29;;;;;;;5.70;5.20;;;;;;;15.34;100.00;97659.84;4177627;28;20094;-74
2023/07/02 03:16:29;;;;;;;5.38;4.88;;;;;;;15.32;100.00;97660.28;4172826;28;20041;-75
2023/07/02 03:18:29;;;;;;;7.38;5.50;;;;;;;15.31;100.00;97667.06;4184764;28;20080;-74
2023/07/02 03:20:29;;;;;;;10.63;6.07;;;;;;;15.30;100.00;97659.91;4187987;28;20078;-75
2023/07/02 03:22:30;;;;;;;7.53;5.53;;;;;;;15.28;100.00;97665.13;4177020;28;20114;-75
2023/07/02 03:24:30;;;;;;;8.35;5.68;;;;;;;15.29;100.00;97665.91;4178325;28;20123;-75
2023/07/02 03:26:31;;;;;;;6.07;5.15;;;;;;;15.26;100.00;97661.19;4173204;28;20036;-74
2023/07/02 03:28:33;;;;;;;7.07;6.07;;;;;;;15.25;100.00;97670.78;4183409;28;20045;-75
2023/07/02 03:30:34;;;;;;;7.78;5.50;;;;;;;15.22;100.00;97661.25;4174895;28;20036;-75
2023/07/02 03:32:34;;;;;;;7.93;5.93;;;;;;;15.18;100.00;97661.34;4174912;28;20032;-74
2023/07/02 03:34:34;;;;;;;6.63;5.53;;;;;;;15.21;100.00;97672.84;4182034;28;20737;-74
2023/07/02 03:36:36;;;;;;;7.63;5.28;;;;;;;15.20;100.00;97663.69;4177594;28;20466;-74
2023/07/02 03:38:36;;;;;;;9.15;5.20;;;;;;;15.22;100.00;97669.63;4183191;28;20387;-75
2023/07/02 03:40:36;;;;;;;7.65;5.65;;;;;;;15.26;100.00;97672.34;4172880;28;20262;-75
2023/07/02 03:42:37;;;;;;;6.97;5.30;;;;;;;15.25;100.00;97671.56;4181758;28;20083;-75
2023/07/02 03:44:37;;;;;;;6.05;5.13;;;;;;;15.25;100.00;97676.34;4179466;28;20056;-74
2023/07/02 03:46:37;;;;;;;7.75;5.65;;;;;;;15.23;100.00;97664.84;4182448;28;20056;-74
2023/07/02 03:48:38;;;;;;;8.50;5.30;;;;;;;15.23;100.00;97676.78;4184854;28;20682;-73
2023/07/02 03:50:38;;;;;;;6.28;4.93;;;;;;;15.25;100.00;97674.34;4173114;28;20045;-74
2023/07/02 03:52:38;;;;;;;7.50;5.00;;;;;;;15.27;100.00;97688.63;4172603;28;20480;-74
2023/07/02 03:54:39;;;;;;;5.60;4.95;;;;;;;15.27;100.00;97683.06;4172472;28;20053;-75
2023/07/02 03:56:39;;;;;;;6.20;4.88;;;;;;;15.27;100.00;97679.50;4172976;28;20120;-74
2023/07/02 03:58:40;;;;;;;5.43;4.47;;;;;;;15.28;100.00;97681.06;4182892;28;20135;-74
2023/07/02 04:00:41;;;;;;;7.50;4.88;;;;;;;15.29;100.00;97691.78;4185789;28;20127;-74
2023/07/02 04:02:42;;;;;;;6.80;4.80;;;;;;;15.28;100.00;97683.84;4183512;28;20132;-74
2023/07/02 04:04:42;;;;;;;7.97;4.07;;;;;;;15.27;100.00;97679.50;4175647;28;20068;-74
2023/07/02 04:06:42;;;;;;;5.32;4.80;;;;;;;15.33;100.00;97686.94;4177510;28;20586;-75
2023/07/02 04:08:44;;;;;;;6.45;4.20;;;;;;;15.30;100.00;97681.41;4177650;28;20049;-74
2023/07/02 04:10:44;;;;;;;5.35;4.10;;;;;;;15.29;100.00;97683.41;4183905;28;20087;-75
2023/07/02 04:12:44;;;;;;;5.82;4.20;;;;;;;15.30;100.00;97686.97;4186125;28;20076;-74
2023/07/02 04:14:44;;;;;;;6.30;4.10;;;;;;;15.29;100.00;97688.19;4188487;28;20041;-74
2023/07/02 04:16:45;;;;;;;4.43;4.03;;;;;;;15.29;100.00;97688.19;4187064;28;20075;-74
2023/07/02 04:18:45;;;;;;;10.80;4.40;;;;;;;15.30;100.00;97689.78;4172647;28;20376;-74
2023/07/02 04:20:46;;;;;;;7.60;3.95;;;;;;;15.28;100.00;97698.56;4172572;28;20099;-75
2023/07/02 04:22:46;;;;;;;8.10;4.03;;;;;;;15.27;100.00;97697.00;4171119;28;20045;-75
2023/07/02 04:24:48;;;;;;;6.05;3.50;;;;;;;15.29;100.00;97702.91;4173023;28;20045;-74
2023/07/02 04:26:48;;;;;;;5.37;3.67;;;;;;;15.29;100.00;97700.13;4173349;28;20124;-74
2023/07/02 04:28:49;;;;;;;3.78;3.45;;;;;;;15.30;100.00;97704.50;4177778;28;20323;-75
2023/07/02 04:30:51;;;;;;;4.13;3.63;;;;;;;15.31;100.00;97699.72;4172312;28;20124;-74
2023/07/02 04:32:52;;;;;;;6.20;3.83;;;;;;;15.28;100.00;97700.56;4173212;28;20055;-74
2023/07/02 04:34:52;;;;;;;5.35;3.88;;;;;;;15.30;100.00;97709.28;4175660;28;20489;-74
2023/07/02 04:36:53;;;;;;;4.60;3.83;;;;;;;15.26;100.00;97712.16;4174783;28;20075;-74
2023/07/02 04:38:54;;;;;;;6.32;3.80;;;;;;;15.26;100.00;97705.78;4186464;28;20062;-74
2023/07/02 04:40:57;;;;;;;4.22;3.83;;;;;;;15.26;100.00;97716.94;4190355;28;20534;-74
2023/07/02 04:42:57;;;;;;;4.03;3.60;;;;;;;15.27;100.00;97716.50;4190598;28;20048;-74
2023/07/02 04:45:02;;;;;;;4.13;3.70;;;;;;;15.26;100.00;97709.34;4182201;28;20048;-74
2023/07/02 04:47:03;;;;;;;5.93;4.00;;;;;;;15.25;100.00;97720.94;4176509;28;20041;-74
2023/07/02 04:49:03;;;;;;;7.78;4.03;;;;;;;15.27;100.00;97722.06;4175840;28;20051;-75
2023/07/02 04:51:04;;;;;;;6.78;4.00;;;;;;;15.25;100.00;97715.38;4182307;28;20045;-74
2023/07/02 04:53:04;;;;;;;3.78;3.47;;;;;;;15.26;100.00;97725.28;4189454;28;20028;-74
2023/07/02 04:55:06;;;;;;;4.80;3.85;;;;;;;15.27;100.00;97726.88;4182348;28;20220;-74
2023/07/02 04:57:06;;;;;;;3.95;3.65;;;;;;;15.28;100.00;97722.84;4177739;28;20460;-73
2023/07/02 04:59:06;;;;;;;4.65;4.25;;;;;;;15.26;100.00;97722.50;4175421;28;20052;-74
2023/07/02 05:01:07;;;;;;;5.30;3.92;;;;;;;15.26;100.00;97733.66;4175279;28;20053;-74
2023/07/02 05:03:07;;;;;;;4.32;3.92;;;;;;;15.26;100.00;97725.28;4174931;28;20515;-74
2023/07/02 05:05:07;;;;;;;4.03;3.58;;;;;;;15.29;100.00;97722.44;4175702;28;20451;-75
2023/07/02 05:07:08;;;;;;;5.18;3.90;;;;;;;15.29;100.00;97728.00;4179040;28;20037;-74
2023/07/02 05:09:08;;;;;;;4.07;3.67;;;;;;;15.30;100.00;97721.22;4182901;28;20117;-74
2023/07/02 05:11:08;;;;;;;3.88;3.50;;;;;;;15.32;100.00;97723.59;4190562;28;20089;-74
2023/07/02 05:13:09;;;;;;;4.07;3.72;;;;;;;15.34;100.00;97735.88;4189341;28;20041;-74
2023/07/02 05:15:09;;;;;;;4.57;3.88;;;;;;;15.35;100.00;97733.88;4190706;28;20052;-75
2023/07/02 05:17:10;;;;;;;5.82;3.70;;;;;;;15.32;100.00;97729.94;4189778;28;20094;-74
2023/07/02 05:19:10;;;;;;;4.70;4.07;;;;;;;15.31;100.00;97725.59;4184773;28;20118;-75
2023/07/02 05:21:11;;;;;;;4.57;4.05;;;;;;;15.35;100.00;97736.66;4190117;28;20464;-74
2023/07/02 05:23:11;;;;;;;5.85;3.67;;;;;;;15.33;100.00;97731.53;4176076;28;20076;-74
2023/07/02 05:25:11;;;;;;;4.00;3.60;;;;;;;15.29;100.00;97727.22;4174998;28;20238;-74
2023/07/02 05:27:12;;;;;;;4.47;4.03;;;;;;;15.34;100.00;97721.16;4174393;28;20056;-74
2023/07/02 05:29:14;;;;;;;5.95;3.80;;;;;;;15.41;100.00;97732.16;4184570;28;20054;-74
2023/07/02 05:31:14;;;;;;;5.30;4.00;;;;;;;15.38;100.00;97731.00;4189435;28;20071;-74
2023/07/02 05:33:14;;;;;;;5.05;3.63;;;;;;;15.42;100.00;97730.94;4174315;28;20315;-74
2023/07/02 05:35:15;;;;;;;4.75;4.10;;;;;;;15.45;100.00;97730.88;4174740;28;20723;-74
2023/07/02 05:37:15;;;;;;;4.65;3.60;;;;;;;15.66;100.00;97723.34;4183181;28;20058;-74
2023/07/02 05:39:15;;;;;;;5.55;3.90;;;;;;;15.90;100.00;97735.19;4181294;28;20052;-74
2023/07/02 05:41:20;;;;;;;3.42;3.10;;;;;;;16.03;100.00;97730.50;4179349;28;20344;-74
2023/07/02 05:43:20;;;;;;;6.70;3.05;;;;;;;16.19;100.00;97724.94;4172505;28;20700;-74
2023/07/02 05:45:20;;;;;;;4.57;3.20;;;;;;;16.32;100.00;97730.63;4174979;28;20048;-74
2023/07/02 05:47:21;;;;;;;3.58;3.20;;;;;;;16.35;100.00;97731.75;4183380;28;20040;-74
2023/07/02 05:49:21;;;;;;;3.20;2.90;;;;;;;16.41;100.00;97732.81;4189433;28;20045;-74
2023/07/02 05:51:22;;;;;;;3.60;3.13;;;;;;;16.54;100.00;97736.47;4182703;28;20036;-74
2023/07/02 05:53:23;;;;;;;5.22;3.47;;;;;;;16.63;100.00;97728.28;4174191;28;20072;-75
2023/07/02 05:55:23;;;;;;;3.60;3.20;;;;;;;16.71;100.00;97728.91;4188467;28;20045;-75
2023/07/02 05:57:23;;;;;;;4.03;2.80;;;;;;;16.83;100.00;97725.44;4183959;28;20048;-74
2023/07/02 05:59:24;;;;;;;3.38;3.08;;;;;;;16.91;100.00;97718.44;4188803;28;20087;-74
2023/07/02 06:01:24;;;;;;;3.42;3.10;;;;;;;16.96;100.00;97731.88;4186656;28;20530;-75
2023/07/02 06:03:24;;;;;;;5.70;2.97;;;;;;;17.08;100.00;97735.97;4188969;28;20761;-75
2023/07/02 06:05:24;;;;;;;3.38;3.05;;;;;;;17.21;100.00;97734.03;4188032;28;20377;-75
2023/07/02 06:07:26;;;;;;;3.80;2.95;;;;;;;17.29;100.00;97738.19;4175758;28;20037;-74
2023/07/02 06:09:26;;;;;;;5.85;3.40;;;;;;;17.32;100.00;97740.09;4177407;28;20039;-75
2023/07/02 06:11:26;;;;;;;4.05;3.25;;;;;;;17.22;100.00;97748.78;4177382;28;20108;-74
2023/07/02 06:13:26;;;;;;;4.88;3.38;;;;;;;17.04;100.00;97750.03;4177578;28;20143;-75
2023/07/02 06:15:27;;;;;;;6.47;4.10;;;;;;;16.89;100.00;97757.22;4175547;28;20132;-75
2023/07/02 06:17:27;;;;;;;5.13;4.20;;;;;;;16.76;100.00;97759.13;4179397;28;20049;-74
2023/07/02 06:19:27;;;;;;;4.70;4.30;;;;;;;16.70;100.00;97753.28;4177761;28;20131;-74
2023/07/02 06:21:29;;;;;;;4.30;3.90;;;;;;;16.62;100.00;97760.22;4174834;28;20044;-74
2023/07/02 06:23:38;;;;;;;9.15;4.43;;;;;;;16.57;100.00;97766.34;4179821;28;20037;-74
2023/07/02 06:25:39;;;;;;;5.40;4.75;;;;;;;16.47;100.00;97756.22;4150478;28;20568;-75
2023/07/02 06:27:39;;;;;;;4.85;4.28;;;;;;;16.44;100.00;97752.28;4178737;28;20065;-74
2023/07/02 06:29:39;;;;;;;5.13;4.32;;;;;;;16.56;100.00;97756.41;4178474;28;20144;-74
2023/07/02 06:31:40;;;;;;;5.60;4.30;;;;;;;16.72;100.00;97755.66;4179206;28;20037;-74
2023/07/02 06:33:40;;;;;;;6.20;4.65;;;;;;;16.85;100.00;97751.69;4174780;28;20178;-74
2023/07/02 06:35:41;;;;;;;5.43;4.35;;;;;;;17.05;100.00;97742.44;4180137;28;20080;-74
2023/07/02 06:37:41;;;;;;;5.25;4.18;;;;;;;17.22;100.00;97735.59;4176931;28;20507;-74
2023/07/02 06:39:41;;;;;;;4.22;3.83;;;;;;;17.37;100.00;97741.56;4176974;28;20050;-74
2023/07/02 06:41:42;;;;;;;4.43;3.92;;;;;;;17.50;100.00;97756.38;4177369;28;20048;-74
2023/07/02 06:43:43;;;;;;;4.40;3.92;;;;;;;17.56;100.00;97749.03;4176747;28;20121;-74
2023/07/02 06:45:43;;;;;;;4.80;3.50;;;;;;;17.66;100.00;97741.56;4174791;28;20071;-74
2023/07/02 06:47:44;;;;;;;6.78;3.97;;;;;;;17.75;100.00;97749.34;4175473;28;20053;-75
2023/07/02 06:49:44;;;;;;;4.80;3.65;;;;;;;17.73;100.00;97763.00;4174496;28;20597;-74
2023/07/02 06:51:44;;;;;;;4.25;3.50;;;;;;;17.74;100.00;97762.53;4177890;28;20042;-75
2023/07/02 06:53:45;;;;;;;5.13;3.70;;;;;;;17.76;100.00;97770.50;4177830;28;20073;-75
2023/07/02 06:55:45;;;;;;;3.97;3.50;;;;;;;17.85;100.00;97776.22;4186345;28;20547;-74
2023/07/02 06:57:46;;;;;;;4.15;3.65;;;;;;;17.93;100.00;97781.16;4183564;28;20037;-74
2023/07/02 06:59:46;;;;;;;7.88;4.13;;;;;;;18.02;100.00;97774.13;4180219;28;20448;-74
2023/07/02 07:01:46;;;;;;;6.55;3.72;;;;;;;17.95;100.00;97783.50;4173653;28;20451;-75
2023/07/02 07:03:46;;;;;;;4.35;3.95;;;;;;;17.80;100.00;97776.78;4174382;28;20538;-74
2023/07/02 07:05:47;;;;;;;6.40;3.88;;;;;;;17.83;100.00;97781.47;4168721;28;20070;-74
2023/07/02 07:07:47;;;;;;;7.10;3.70;;;;;;;17.90;100.00;97782.06;4170756;28;20098;-75
2023/07/02 07:09:47;;;;;;;4.25;3.85;;;;;;;18.04;100.00;97785.66;4173791;28;20610;-74
2023/07/02 07:11:48;;;;;;;5.75;3.83;;;;;;;18.11;100.00;97791.84;4177568;28;20036;-75
2023/07/02 07:13:48;;;;;;;4.65;4.07;;;;;;;18.14;100.00;97796.56;4176231;28;20040;-75
2023/07/02 07:15:48;;;;;;;6.10;4.13;;;;;;;18.03;99.09;97798.88;4174916;28;20443;-75
2023/07/02 07:17:49;;;;;;;5.95;4.32;;;;;;;17.73;99.69;97797.34;4174830;28;20117;-75
2023/07/02 07:19:49;;;;;;;6.32;4.78;;;;;;;17.51;99.77;97790.72;4179625;28;20053;-74
2023/07/02 07:21:49;;;;;;;7.13;5.15;;;;;;;17.42;100.00;97788.56;4182048;28;20639;-75
2023/07/02 07:23:50;;;;;;;7.40;4.78;;;;;;;17.24;100.00;97796.66;4180097;28;20048;-74
2023/07/02 07:25:51;;;;;;;6.43;4.93;;;;;;;17.37;100.00;97792.69;4173524;28;20049;-75
2023/07/02 07:27:51;;;;;;;5.78;4.60;;;;;;;17.59;100.00;97787.31;4174778;28;20095;-75
2023/07/02 07:29:51;;;;;;;5.72;4.35;;;;;;;17.77;99.35;97786.81;4177784;28;20149;-75
2023/07/02 07:31:52;;;;;;;5.07;3.90;;;;;;;17.75;98.30;97788.50;4186968;28;20040;-75
2023/07/02 07:33:52;;;;;;;6.68;3.92;;;;;;;17.63;97.34;97792.81;4183650;28;20037;-74
2023/07/02 07:35:52;;;;;;;7.85;4.05;;;;;;;17.55;97.99;97797.81;4175450;28;20564;-74
2023/07/02 07:37:53;;;;;;;5.97;3.50;;;;;;;17.44;95.58;97790.91;4177359;28;20045;-75
2023/07/02 07:39:53;;;;;;;6.43;4.43;;;;;;;17.37;97.68;97791.88;4187520;28;20131;-75
2023/07/02 07:41:54;;;;;;;9.35;4.85;;;;;;;17.32;99.25;97798.81;4187367;28;20044;-75
2023/07/02 07:43:54;;;;;;;8.88;3.90;;;;;;;17.45;98.48;97790.47;4177373;28;20048;-75
2023/07/02 07:45:54;;;;;;;7.38;3.60;;;;;;;17.64;97.30;97802.78;4179620;28;20045;-74
2023/07/02 07:47:55;;;;;;;4.45;3.22;;;;;;;17.80;94.87;97805.53;4172566;28;20135;-75
2023/07/02 07:49:55;;;;;;;4.95;3.40;;;;;;;17.85;92.53;97798.59;4178034;28;20202;-75
2023/07/02 07:51:55;;;;;;;6.43;3.00;;;;;;;17.83;92.40;97793.47;4180743;28;20187;-75
2023/07/02 07:53:55;;;;;;;7.18;3.10;;;;;;;17.80;91.71;97801.97;4174864;28;20064;-74
2023/07/02 07:55:56;;;;;;;3.80;3.13;;;;;;;17.67;91.54;97805.47;4174116;28;20536;-75
2023/07/02 07:57:56;;;;;;;6.82;3.20;;;;;;;17.64;92.41;97803.56;4174486;28;20033;-74
2023/07/02 07:59:56;;;;;;;4.53;2.65;;;;;;;17.89;93.09;97796.50;4187249;28;20048;-75
2023/07/02 08:01:57;;;;;;;6.18;3.08;;;;;;;18.17;92.89;97800.47;4185962;28;21453;-75
2023/07/02 08:03:57;;;;;;;5.45;3.20;;;;;;;18.42;90.31;97802.53;4186389;28;20128;-75
2023/07/02 08:05:57;;;;;;;6.40;3.35;;;;;;;18.41;89.52;97796.16;4186993;28;20041;-75
2023/07/02 08:07:58;;;;;;;4.70;3.58;;;;;;;18.36;89.54;97802.28;4180590;28;20132;-74
2023/07/02 08:09:59;;;;;;;5.70;3.70;;;;;;;18.33;90.25;97803.19;4187940;28;20048;-74
2023/07/02 08:12:00;;;;;;;5.63;3.15;;;;;;;18.25;90.13;97808.22;4191311;28;20048;-74
2023/07/02 08:14:00;;;;;;;5.47;3.67;;;;;;;18.17;91.40;97812.47;4188862;28;20094;-75
2023/07/02 08:16:00;;;;;;;5.80;3.63;;;;;;;18.09;93.10;97802.69;4190771;28;20102;-74
2023/07/02 08:18:01;;;;;;;5.75;3.60;;;;;;;18.07;91.55;97807.19;4176753;28;20095;-76
2023/07/02 08:20:03;;;;;;;9.90;3.85;;;;;;;18.03;90.67;97804.47;4177209;28;20531;-74
2023/07/02 08:22:04;;;;;;;5.10;3.30;;;;;;;18.13;90.97;97811.00;4185975;28;20457;-75
2023/07/02 08:24:06;;;;;;;5.65;3.47;;;;;;;18.16;92.93;97816.50;4174526;28;20032;-75
2023/07/02 08:26:06;;;;;;;5.13;3.00;;;;;;;18.27;92.24;97813.38;4176113;28;20047;-75
2023/07/02 08:28:07;;;;;;;6.97;3.58;;;;;;;18.44;89.26;97806.44;4175661;28;20020;-75
2023/07/02 08:30:07;;;;;;;5.57;2.90;;;;;;;18.71;87.81;97824.88;4175511;28;20033;-75
2023/07/02 08:32:08;;;;;;;4.43;3.22;;;;;;;18.98;87.09;97825.19;4180518;28;20405;-76
2023/07/02 08:34:08;;;;;;;6.40;2.90;;;;;;;19.18;86.17;97816.50;4181663;28;20024;-75
2023/07/02 08:36:08;;;;;;;4.28;2.95;;;;;;;19.23;84.01;97821.56;4185110;28;20134;-74
2023/07/02 08:38:09;;;;;;;7.28;3.17;;;;;;;19.22;83.88;97820.00;4179642;28;20028;-74
2023/07/02 08:40:19;;;;;;;5.47;3.00;;;;;;;19.22;83.27;97819.22;4191210;28;20036;-75
2023/07/02 08:42:19;;;;;;;6.20;3.67;;;;;;;19.09;83.77;97833.25;4189723;28;20341;-75
2023/07/02 08:44:21;;;;;;;4.72;2.80;;;;;;;19.06;83.04;97834.16;4179869;28;20037;-75
2023/07/02 08:46:22;;;;;;;4.45;3.00;;;;;;;18.99;82.91;97840.78;4175994;28;20546;-75
2023/07/02 08:48:24;;;;;;;4.57;3.00;;;;;;;18.88;82.54;97840.34;4176370;28;20309;-74
2023/07/02 08:50:24;;;;;;;3.92;3.00;;;;;;;18.87;84.19;97832.38;4179226;28;20863;-75
2023/07/02 08:52:25;;;;;;;6.35;2.90;;;;;;;18.87;85.22;97838.78;4176912;28;20486;-75
2023/07/02 08:54:25;;;;;;;4.30;2.80;;;;;;;18.91;85.35;97833.84;4175246;28;20032;-75
2023/07/02 08:56:26;;;;;;;4.80;3.08;;;;;;;18.92;86.17;97835.41;4180577;28;20037;-74
2023/07/02 08:58:27;;;;;;;8.02;3.42;;;;;;;19.03;86.96;97833.06;4177638;28;20048;-75
2023/07/02 09:00:27;;;;;;;8.73;3.47;;;;;;;19.14;86.88;97832.69;4175665;28;20094;-75
2023/07/02 09:02:34;;;;;;;5.43;3.22;;;;;;;19.19;85.39;97831.31;4177699;28;20052;-74
2023/07/02 09:04:34;;;;;;;6.38;3.35;;;;;;;19.31;85.08;97828.50;4172152;28;20037;-75
2023/07/02 09:06:35;;;;;;;6.38;3.92;;;;;;;19.32;83.18;97826.47;4177831;28;20052;-74
2023/07/02 09:08:36;;;;;;;6.07;3.53;;;;;;;19.36;84.53;97829.94;4173025;28;20049;-75
2023/07/02 09:10:36;;;;;;;6.10;3.85;;;;;;;19.33;85.12;97831.63;4180967;28;20366;-74
2023/07/02 09:12:38;;;;;;;5.22;3.30;;;;;;;19.33;85.03;97831.63;4177050;28;20118;-75
2023/07/02 09:14:38;;;;;;;5.22;3.78;;;;;;;19.27;85.94;97838.25;4176781;28;20120;-75
2023/07/02 09:16:41;;;;;;;7.32;3.83;;;;;;;19.32;86.14;97837.69;4175738;28;20083;-74
2023/07/02 09:18:41;;;;;;;5.97;4.07;;;;;;;19.38;85.18;97843.53;4173641;28;20052;-75
2023/07/02 09:20:41;;;;;;;6.70;3.53;;;;;;;19.39;86.85;97848.69;4177195;28;20106;-74
2023/07/02 09:22:42;;;;;;;6.35;3.95;;;;;;;19.47;86.25;97840.81;4179793;28;20036;-75